createdAt,value
2023-04-16T00:02:19.534Z,9.10
2023-04-16T00:04:52.836Z,9.00
2023-04-16T00:07:26.151Z,8.90
2023-04-16T00:09:59.100Z,8.84
2023-04-16T00:12:32.233Z,8.80
2023-04-16T00:15:05.412Z,8.70
2023-04-16T00:17:38.459Z,8.68
2023-04-16T00:20:13.381Z,8.60
2023-04-16T00:22:46.380Z,8.50
2023-04-16T00:25:19.322Z,8.40
2023-04-16T00:27:52.551Z,8.32
2023-04-16T00:30:25.571Z,8.30
2023-04-16T00:32:58.830Z,8.28
2023-04-16T00:35:31.822Z,8.20
2023-04-16T00:38:04.886Z,8.10
2023-04-16T00:40:37.825Z,8.00
2023-04-16T00:43:10.824Z,7.92
2023-04-16T00:45:44.429Z,7.90
2023-04-16T00:48:17.767Z,7.80
2023-04-16T00:50:51.453Z,7.70
2023-04-16T00:53:24.927Z,7.70
2023-04-16T00:55:58.903Z,7.60
2023-04-16T00:58:32.689Z,7.52
2023-04-16T01:01:06.271Z,7.50
2023-04-16T01:03:45.102Z,7.48
2023-04-16T01:06:19.741Z,7.40
2023-04-16T01:08:52.851Z,7.40
2023-04-16T01:11:26.051Z,7.40
2023-04-16T01:13:59.048Z,7.38
2023-04-16T01:16:32.310Z,7.30
2023-04-16T01:19:05.440Z,7.30
2023-04-16T01:21:38.507Z,7.30
2023-04-16T01:24:11.969Z,7.20
2023-04-16T01:26:45.688Z,7.20
2023-04-16T01:29:18.818Z,7.10
2023-04-16T01:31:52.256Z,7.10
2023-04-16T01:34:31.865Z,7.00
2023-04-16T01:37:04.966Z,7.00
2023-04-16T01:39:38.045Z,6.92
2023-04-16T01:42:11.091Z,6.90
2023-04-16T01:44:44.077Z,6.90
2023-04-16T01:47:17.360Z,6.80
2023-04-16T01:49:50.665Z,6.80
2023-04-16T01:52:23.630Z,6.80
2023-04-16T01:54:56.677Z,6.80
2023-04-16T01:57:29.953Z,6.80
2023-04-16T02:00:03.407Z,6.80
2023-04-16T02:02:38.200Z,6.80
2023-04-16T02:05:11.989Z,6.80
2023-04-16T02:07:44.990Z,6.72
2023-04-16T02:10:18.205Z,6.70
2023-04-16T02:12:51.739Z,6.70
2023-04-16T02:15:25.572Z,6.60
2023-04-16T02:17:59.130Z,6.60
2023-04-16T02:20:32.199Z,6.52
2023-04-16T02:23:06.586Z,6.50
2023-04-16T02:25:42.952Z,6.50
2023-04-16T02:28:18.726Z,6.50
2023-04-16T02:30:52.477Z,6.48
2023-04-16T02:33:26.958Z,6.50
2023-04-16T02:36:06.740Z,6.40
2023-04-16T02:38:39.786Z,6.40
2023-04-16T02:41:12.804Z,6.40
2023-04-16T02:43:48.453Z,6.40
2023-04-16T02:46:21.516Z,6.30
2023-04-16T02:48:54.723Z,6.32
2023-04-16T02:51:28.012Z,6.30
2023-04-16T02:54:01.088Z,6.30
2023-04-16T02:56:34.303Z,6.30
2023-04-16T02:59:08.117Z,6.30
2023-04-16T03:01:41.586Z,6.30
2023-04-16T03:04:14.587Z,6.30
2023-04-16T03:06:47.604Z,6.32
2023-04-16T03:09:20.773Z,6.36
2023-04-16T03:11:53.766Z,6.40
2023-04-16T03:14:26.728Z,6.40
2023-04-16T03:17:00.045Z,6.40
2023-04-16T03:19:33.050Z,6.40
2023-04-16T03:22:06.393Z,6.40
2023-04-16T03:24:40.104Z,6.40
2023-04-16T03:27:13.273Z,6.40
2023-04-16T03:29:46.252Z,6.36
2023-04-16T03:32:19.326Z,6.32
2023-04-16T03:34:52.338Z,6.30
2023-04-16T03:37:25.312Z,6.40
2023-04-16T03:39:58.682Z,6.40
2023-04-16T03:42:31.746Z,6.40
2023-04-16T03:45:05.093Z,6.44
2023-04-16T03:47:38.551Z,6.48
2023-04-16T03:50:13.555Z,6.40
2023-04-16T03:52:47.169Z,6.40
2023-04-16T03:55:21.171Z,6.40
2023-04-16T03:57:54.064Z,6.38
2023-04-16T04:00:27.246Z,6.34
2023-04-16T04:03:05.017Z,6.32
2023-04-16T04:05:41.008Z,6.38
2023-04-16T04:08:15.634Z,6.40
2023-04-16T04:10:48.775Z,6.40
2023-04-16T04:13:22.308Z,6.50
2023-04-16T04:15:55.479Z,6.58
2023-04-16T04:18:29.104Z,6.62
2023-04-16T04:21:06.068Z,6.70
2023-04-16T04:23:41.721Z,6.80
2023-04-16T04:26:15.003Z,6.90
2023-04-16T04:28:47.932Z,7.00
2023-04-16T04:31:21.816Z,7.06
2023-04-16T04:33:54.924Z,7.10
2023-04-16T04:36:28.478Z,7.20
2023-04-16T04:39:01.536Z,7.20
2023-04-16T04:41:34.622Z,7.20
2023-04-16T04:44:08.380Z,7.20
2023-04-16T04:46:41.475Z,7.30
2023-04-16T04:49:14.436Z,7.26
2023-04-16T04:51:47.489Z,7.22
2023-04-16T04:54:20.689Z,7.20
2023-04-16T04:56:53.763Z,7.20
2023-04-16T04:59:27.342Z,7.20
2023-04-16T05:02:00.855Z,7.20
2023-04-16T05:04:34.249Z,7.20
2023-04-16T05:07:07.407Z,7.30
2023-04-16T05:09:40.448Z,7.30
2023-04-16T05:12:13.366Z,7.40
2023-04-16T05:14:46.485Z,7.50
2023-04-16T05:17:19.864Z,7.60
2023-04-16T05:19:53.427Z,7.70
2023-04-16T05:22:26.397Z,7.80
2023-04-16T05:24:59.423Z,7.90
2023-04-16T05:27:32.479Z,8.10
2023-04-16T05:30:05.671Z,8.26
2023-04-16T05:32:40.120Z,8.40
2023-04-16T05:35:16.677Z,8.60
2023-04-16T05:37:50.356Z,8.80
2023-04-16T05:40:23.671Z,9.00
2023-04-16T05:42:56.584Z,9.10
2023-04-16T05:45:29.614Z,9.30
2023-04-16T05:48:02.573Z,9.50
2023-04-16T05:50:35.706Z,9.64
2023-04-16T05:53:11.112Z,9.80
2023-04-16T05:55:44.065Z,10.00
2023-04-16T05:58:17.154Z,10.10
2023-04-16T06:00:50.220Z,10.30
2023-04-16T06:03:24.711Z,10.40
2023-04-16T06:05:57.884Z,10.60
2023-04-16T06:08:31.067Z,10.80
2023-04-16T06:11:04.654Z,11.00
2023-04-16T06:13:37.922Z,11.20
2023-04-16T06:16:11.578Z,11.20
2023-04-16T06:18:44.591Z,11.20
2023-04-16T06:21:17.690Z,11.10
2023-04-16T06:23:50.884Z,11.00
2023-04-16T06:26:24.247Z,11.00
2023-04-16T06:28:57.173Z,11.00
2023-04-16T06:31:31.157Z,11.20
2023-04-16T06:34:04.298Z,11.40
2023-04-16T06:36:37.911Z,11.60
2023-04-16T06:39:10.955Z,11.72
2023-04-16T06:41:44.132Z,11.80
2023-04-16T06:44:17.196Z,11.90
2023-04-16T06:46:50.250Z,12.10
2023-04-16T06:49:23.319Z,12.30
2023-04-16T06:51:56.525Z,12.50
2023-04-16T06:54:29.528Z,12.52
2023-04-16T06:57:02.555Z,12.58
2023-04-16T06:59:35.565Z,12.64
2023-04-16T07:02:09.415Z,12.74
2023-04-16T07:04:42.540Z,12.80
2023-04-16T07:07:15.865Z,12.90
2023-04-16T07:09:48.858Z,13.00
2023-04-16T07:12:23.186Z,13.10
2023-04-16T07:14:56.834Z,13.20
2023-04-16T07:17:30.225Z,13.30
2023-04-16T07:20:03.139Z,13.40
2023-04-16T07:22:36.111Z,13.40
2023-04-16T07:25:10.658Z,13.50
2023-04-16T07:27:43.916Z,13.40
2023-04-16T07:30:17.160Z,13.40
2023-04-16T07:32:50.125Z,13.40
2023-04-16T07:35:23.173Z,13.30
2023-04-16T07:37:56.099Z,13.26
2023-04-16T07:40:29.257Z,13.20
2023-04-16T07:43:02.330Z,13.30
2023-04-16T07:45:35.290Z,13.30
2023-04-16T07:48:09.023Z,13.36
2023-04-16T07:50:43.765Z,13.40
2023-04-16T07:53:16.686Z,13.50
2023-04-16T07:55:49.638Z,13.60
2023-04-16T07:58:22.760Z,13.70
2023-04-16T08:00:55.746Z,13.80
2023-04-16T08:03:29.252Z,13.90
2023-04-16T08:06:02.439Z,14.02
2023-04-16T08:08:36.487Z,14.20
2023-04-16T08:11:09.677Z,14.38
2023-04-16T08:13:42.674Z,14.52
2023-04-16T08:16:15.621Z,14.64
2023-04-16T08:18:48.549Z,14.80
2023-04-16T08:21:21.543Z,14.80
2023-04-16T08:23:54.582Z,15.00
2023-04-16T08:26:27.552Z,15.30
2023-04-16T08:29:00.565Z,15.50
2023-04-16T08:31:34.088Z,15.82
2023-04-16T08:34:07.059Z,16.20
2023-04-16T08:36:40.009Z,16.62
2023-04-16T08:39:13.363Z,17.00
2023-04-16T08:41:49.001Z,17.48
2023-04-16T08:44:29.189Z,17.98
2023-04-16T08:47:02.875Z,18.02
2023-04-16T08:49:43.409Z,18.34
2023-04-16T08:52:20.461Z,18.86
2023-04-16T08:55:05.676Z,19.10
2023-04-16T08:57:53.621Z,19.16
2023-04-16T09:00:27.242Z,19.50
2023-04-16T09:03:00.308Z,19.54
2023-04-16T09:05:34.953Z,19.40
2023-04-16T09:08:08.269Z,19.70
2023-04-16T09:10:41.382Z,20.50
2023-04-16T09:13:16.657Z,21.10
2023-04-16T09:15:53.273Z,21.00
2023-04-16T09:18:26.346Z,21.10
2023-04-16T09:20:59.759Z,21.32
2023-04-16T09:23:33.015Z,21.90
2023-04-16T09:26:07.761Z,22.26
2023-04-16T09:28:51.008Z,22.54
2023-04-16T09:31:24.593Z,22.94
2023-04-16T09:34:09.803Z,23.22
2023-04-16T09:36:42.803Z,23.60
2023-04-16T09:39:21.377Z,24.02
2023-04-16T09:41:58.096Z,24.20
2023-04-16T09:44:40.167Z,24.44
2023-04-16T09:47:13.706Z,24.88
2023-04-16T09:49:48.353Z,25.38
2023-04-16T09:52:23.682Z,25.18
2023-04-16T09:54:57.541Z,24.26
2023-04-16T09:57:30.941Z,23.26
2023-04-16T10:00:10.452Z,23.26
2023-04-16T10:02:47.039Z,24.28
2023-04-16T10:05:22.954Z,24.48
2023-04-16T10:08:01.079Z,23.90
2023-04-16T10:10:35.453Z,24.00
2023-04-16T10:13:08.788Z,23.06
2023-04-16T10:15:42.172Z,22.14
2023-04-16T10:18:15.861Z,22.18
2023-04-16T10:20:49.276Z,22.86
2023-04-16T10:23:22.726Z,24.18
2023-04-16T10:25:57.767Z,24.94
2023-04-16T10:28:31.688Z,24.68
2023-04-16T10:31:07.037Z,23.86
2023-04-16T10:33:43.528Z,23.20
2023-04-16T10:36:18.688Z,22.70
2023-04-16T10:38:53.384Z,22.50
2023-04-16T10:41:26.914Z,23.40
2023-04-16T10:44:10.719Z,23.08
2023-04-16T10:46:45.572Z,24.36
2023-04-16T10:49:20.486Z,25.16
2023-04-16T10:52:02.384Z,24.24
2023-04-16T10:54:38.183Z,24.08
2023-04-16T10:57:16.454Z,25.88
2023-04-16T10:59:51.534Z,26.96
2023-04-16T11:02:29.781Z,25.94
2023-04-16T11:05:04.823Z,24.82
2023-04-16T11:07:39.680Z,23.92
2023-04-16T11:10:15.985Z,23.48
2023-04-16T11:12:50.544Z,23.06
2023-04-16T11:15:24.961Z,22.48
2023-04-16T11:17:58.028Z,23.52
2023-04-16T11:20:31.758Z,24.22
2023-04-16T11:23:04.791Z,25.20
2023-04-16T11:25:38.147Z,26.40
2023-04-16T11:28:11.107Z,25.34
2023-04-16T11:30:44.764Z,25.22
2023-04-16T11:33:17.742Z,26.98
2023-04-16T11:36:00.015Z,26.56
2023-04-16T11:38:41.321Z,26.56
2023-04-16T11:41:20.335Z,25.60
2023-04-16T11:43:53.368Z,24.40
2023-04-16T11:46:38.726Z,23.24
2023-04-16T11:49:12.088Z,22.22
2023-04-16T11:51:48.039Z,21.40
2023-04-16T11:54:28.107Z,20.94
2023-04-16T11:57:01.396Z,20.50
2023-04-16T11:59:34.592Z,20.10
2023-04-16T12:02:07.898Z,20.00
2023-04-16T12:04:41.415Z,19.70
2023-04-16T12:07:15.958Z,19.30
2023-04-16T12:09:48.964Z,21.40
2023-04-16T12:12:32.508Z,24.30
2023-04-16T12:15:06.823Z,27.02
2023-04-16T12:17:41.004Z,26.94
2023-04-16T12:20:16.760Z,25.78
2023-04-16T12:22:52.947Z,25.00
2023-04-16T12:25:27.459Z,26.42
2023-04-16T12:28:00.411Z,28.00
2023-04-16T12:30:33.732Z,29.46
2023-04-16T12:33:22.565Z,30.60
2023-04-16T12:35:55.773Z,31.70
2023-04-16T12:38:28.833Z,32.90
2023-04-16T12:41:02.487Z,34.26
2023-04-16T12:43:35.587Z,34.90
2023-04-16T12:46:08.596Z,35.30
2023-04-16T12:48:41.806Z,36.02
2023-04-16T12:51:14.740Z,36.54
2023-04-16T12:53:47.727Z,37.20
2023-04-16T12:56:21.048Z,37.76
2023-04-16T12:58:54.387Z,36.94
2023-04-16T13:01:27.885Z,34.60
2023-04-16T13:04:01.141Z,32.02
2023-04-16T13:06:36.996Z,29.54
2023-04-16T13:09:10.595Z,27.48
2023-04-16T13:11:43.702Z,26.02
2023-04-16T13:14:35.848Z,24.70
2023-04-16T13:17:08.896Z,23.72
2023-04-16T13:19:41.957Z,23.00
2023-04-16T13:22:14.956Z,22.30
2023-04-16T13:24:47.902Z,21.70
2023-04-16T13:27:21.086Z,21.16
2023-04-16T13:29:54.070Z,20.80
2023-04-16T13:32:27.090Z,20.70
2023-04-16T13:35:00.401Z,21.92
2023-04-16T13:37:33.310Z,22.00
2023-04-16T13:40:07.268Z,21.80
2023-04-16T13:42:40.182Z,21.60
2023-04-16T13:45:13.893Z,23.26
2023-04-16T13:47:47.873Z,24.68
2023-04-16T13:50:21.117Z,26.54
2023-04-16T13:52:54.169Z,26.14
2023-04-16T13:55:27.208Z,25.26
2023-04-16T13:58:00.752Z,24.94
2023-04-16T14:00:33.930Z,26.46
2023-04-16T14:03:07.142Z,26.12
2023-04-16T14:05:41.462Z,26.38
2023-04-16T14:08:15.054Z,26.88
2023-04-16T14:10:48.276Z,26.02
2023-04-16T14:13:21.932Z,25.80
2023-04-16T14:15:56.789Z,27.64
2023-04-16T14:18:29.902Z,29.52
2023-04-16T14:21:03.358Z,31.30
2023-04-16T14:23:36.345Z,32.68
2023-04-16T14:26:09.807Z,33.60
2023-04-16T14:28:42.821Z,34.34
2023-04-16T14:31:17.377Z,34.68
2023-04-16T14:33:50.333Z,35.00
2023-04-16T14:36:23.293Z,35.32
2023-04-16T14:38:56.428Z,35.40
2023-04-16T14:41:29.925Z,34.76
2023-04-16T14:44:04.434Z,34.20
2023-04-16T14:46:38.796Z,34.46
2023-04-16T14:49:12.543Z,34.98
2023-04-16T14:51:46.533Z,34.48
2023-04-16T14:54:19.531Z,32.94
2023-04-16T14:56:52.681Z,31.68
2023-04-16T14:59:25.766Z,30.32
2023-04-16T15:01:59.860Z,28.72
2023-04-16T15:04:32.952Z,27.06
2023-04-16T15:07:06.318Z,25.82
2023-04-16T15:09:40.021Z,25.02
2023-04-16T15:12:12.976Z,24.22
2023-04-16T15:14:46.202Z,23.36
2023-04-16T15:17:19.477Z,23.42
2023-04-16T15:19:53.764Z,23.72
2023-04-16T15:22:27.494Z,24.10
2023-04-16T15:25:00.464Z,24.42
2023-04-16T15:27:33.492Z,24.60
2023-04-16T15:30:07.617Z,24.94
2023-04-16T15:32:40.733Z,25.06
2023-04-16T15:35:15.038Z,24.80
2023-04-16T15:37:47.982Z,25.12
2023-04-16T15:40:21.266Z,26.62
2023-04-16T15:42:54.538Z,27.40
2023-04-16T15:45:27.746Z,27.30
2023-04-16T15:48:01.073Z,27.06
2023-04-16T15:50:34.470Z,27.86
2023-04-16T15:53:07.802Z,28.68
2023-04-16T15:55:40.962Z,28.32
2023-04-16T15:58:14.688Z,27.40
2023-04-16T16:00:50.080Z,26.34
2023-04-16T16:03:23.624Z,25.30
2023-04-16T16:05:59.242Z,24.34
2023-04-16T16:08:35.658Z,23.42
2023-04-16T16:11:08.839Z,22.56
2023-04-16T16:13:41.952Z,21.94
2023-04-16T16:16:15.023Z,21.32
2023-04-16T16:18:48.040Z,20.80
2023-04-16T16:21:21.276Z,20.50
2023-04-16T16:23:54.450Z,20.78
2023-04-16T16:26:27.629Z,22.16
2023-04-16T16:29:01.587Z,23.28
2023-04-16T16:31:34.731Z,22.92
2023-04-16T16:34:07.959Z,22.08
2023-04-16T16:36:40.948Z,21.30
2023-04-16T16:39:14.133Z,20.56
2023-04-16T16:41:52.294Z,19.90
2023-04-16T16:44:25.705Z,19.34
2023-04-16T16:46:58.864Z,18.88
2023-04-16T16:49:31.936Z,18.44
2023-04-16T16:52:05.186Z,18.06
2023-04-16T16:54:38.220Z,17.70
2023-04-16T16:57:11.290Z,17.40
2023-04-16T16:59:44.210Z,17.08
2023-04-16T17:02:17.256Z,16.80
2023-04-16T17:04:50.500Z,16.60
2023-04-16T17:07:23.622Z,16.40
2023-04-16T17:09:56.711Z,16.26
2023-04-16T17:12:29.821Z,16.10
2023-04-16T17:15:03.165Z,16.00
2023-04-16T17:17:36.150Z,15.86
2023-04-16T17:20:12.616Z,15.70
2023-04-16T17:22:46.172Z,15.52
2023-04-16T17:25:19.349Z,15.40
2023-04-16T17:27:52.514Z,15.28
2023-04-16T17:30:27.612Z,15.10
2023-04-16T17:33:00.776Z,15.00
2023-04-16T17:35:34.340Z,14.90
2023-04-16T17:38:07.540Z,14.80
2023-04-16T17:40:40.655Z,14.70
2023-04-16T17:43:13.676Z,14.60
2023-04-16T17:45:46.937Z,14.50
2023-04-16T17:48:20.409Z,14.50
2023-04-16T17:50:53.447Z,14.40
2023-04-16T17:53:26.526Z,14.30
2023-04-16T17:55:59.629Z,14.20
2023-04-16T17:58:35.364Z,14.18
2023-04-16T18:01:08.680Z,14.10
2023-04-16T18:03:42.381Z,14.00
2023-04-16T18:06:15.708Z,13.90
2023-04-16T18:08:48.824Z,13.90
2023-04-16T18:11:22.368Z,13.80
2023-04-16T18:13:55.385Z,13.76
2023-04-16T18:16:28.725Z,13.70
2023-04-16T18:19:01.858Z,13.60
2023-04-16T18:21:35.673Z,13.60
2023-04-16T18:24:10.186Z,13.52
2023-04-16T18:26:46.642Z,13.50
2023-04-16T18:29:24.326Z,13.50
2023-04-16T18:31:59.161Z,13.40
2023-04-16T18:34:32.317Z,13.40
2023-04-16T18:37:05.653Z,13.26
2023-04-16T18:39:38.820Z,13.10
2023-04-16T18:42:11.911Z,13.00
2023-04-16T18:44:44.806Z,12.90
2023-04-16T18:47:18.042Z,12.80
2023-04-16T18:49:51.071Z,12.70
2023-04-16T18:52:24.240Z,12.60
2023-04-16T18:54:57.776Z,12.50
2023-04-16T18:57:30.867Z,12.44
2023-04-16T19:00:09.591Z,12.40
2023-04-16T19:02:43.050Z,12.40
2023-04-16T19:05:16.290Z,12.32
2023-04-16T19:07:49.500Z,12.30
2023-04-16T19:10:22.674Z,12.30
2023-04-16T19:12:56.625Z,12.30
2023-04-16T19:15:31.652Z,12.20
2023-04-16T19:18:07.105Z,12.20
2023-04-16T19:20:40.681Z,12.20
2023-04-16T19:23:14.110Z,12.20
2023-04-16T19:25:47.200Z,12.20
2023-04-16T19:28:20.164Z,12.14
2023-04-16T19:30:56.300Z,12.10
2023-04-16T19:33:29.399Z,12.10
2023-04-16T19:36:03.092Z,12.10
2023-04-16T19:38:36.184Z,12.10
2023-04-16T19:41:09.283Z,12.10
2023-04-16T19:43:42.188Z,12.10
2023-04-16T19:46:15.691Z,12.10
2023-04-16T19:48:48.780Z,12.04
2023-04-16T19:51:21.750Z,12.08
2023-04-16T19:53:56.160Z,12.04
2023-04-16T19:56:29.328Z,12.06
2023-04-16T19:59:02.745Z,12.10
2023-04-16T20:01:36.099Z,12.10
2023-04-16T20:04:09.554Z,12.10
2023-04-16T20:06:42.585Z,12.10
2023-04-16T20:09:15.852Z,12.08
2023-04-16T20:11:49.060Z,12.06
2023-04-16T20:14:21.992Z,12.00
2023-04-16T20:16:55.074Z,12.00
2023-04-16T20:19:31.684Z,12.00
2023-04-16T20:22:04.767Z,12.00
2023-04-16T20:24:38.695Z,11.98
2023-04-16T20:27:11.570Z,11.94
2023-04-16T20:29:45.641Z,11.90
2023-04-16T20:32:18.601Z,11.90
2023-04-16T20:34:51.641Z,11.90
2023-04-16T20:37:24.867Z,11.90
2023-04-16T20:39:57.921Z,11.90
2023-04-16T20:42:32.694Z,11.84
2023-04-16T20:45:06.276Z,11.80
2023-04-16T20:47:39.745Z,11.80
2023-04-16T20:50:14.231Z,11.80
2023-04-16T20:52:47.163Z,11.80
2023-04-16T20:55:20.663Z,11.70
2023-04-16T20:57:53.611Z,11.70
2023-04-16T21:00:27.260Z,11.70
2023-04-16T21:03:00.455Z,11.70
2023-04-16T21:05:34.085Z,11.68
2023-04-16T21:08:07.705Z,11.60
2023-04-16T21:10:43.360Z,11.60
2023-04-16T21:13:16.528Z,11.60
2023-04-16T21:15:49.822Z,11.60
2023-04-16T21:18:22.877Z,11.60
2023-04-16T21:20:56.888Z,11.60
2023-04-16T21:23:29.936Z,11.60
2023-04-16T21:26:03.077Z,11.60
2023-04-16T21:28:36.111Z,11.60
2023-04-16T21:31:09.095Z,11.54
2023-04-16T21:33:42.149Z,11.50
2023-04-16T21:36:15.141Z,11.50
2023-04-16T21:38:48.244Z,11.50
2023-04-16T21:41:21.292Z,11.40
2023-04-16T21:43:54.266Z,11.40
2023-04-16T21:46:27.986Z,11.30
2023-04-16T21:49:01.068Z,11.30
2023-04-16T21:51:34.217Z,11.30
2023-04-16T21:54:07.210Z,11.30
2023-04-16T21:56:40.320Z,11.24
2023-04-16T21:59:13.570Z,11.20
2023-04-16T22:01:46.640Z,11.20
2023-04-16T22:04:26.395Z,11.20
2023-04-16T22:07:03.340Z,11.20
2023-04-16T22:09:36.509Z,11.20
2023-04-16T22:12:10.698Z,11.20
2023-04-16T22:14:52.268Z,11.20
2023-04-16T22:17:32.529Z,11.20
2023-04-16T22:20:08.795Z,11.20
2023-04-16T22:22:42.030Z,11.20
2023-04-16T22:25:15.266Z,11.20
2023-04-16T22:27:48.184Z,11.12
2023-04-16T22:30:21.392Z,11.10
2023-04-16T22:32:54.435Z,11.08
2023-04-16T22:35:27.460Z,11.00
2023-04-16T22:38:00.396Z,10.94
2023-04-16T22:40:34.864Z,10.90
2023-04-16T22:43:08.137Z,10.80
2023-04-16T22:45:41.316Z,10.80
2023-04-16T22:48:14.635Z,10.70
2023-04-16T22:50:51.211Z,10.70
2023-04-16T22:53:24.277Z,10.70
2023-04-16T22:55:57.291Z,10.60
2023-04-16T22:58:30.455Z,10.60
2023-04-16T23:01:03.563Z,10.60
2023-04-16T23:03:36.535Z,10.60
2023-04-16T23:06:10.080Z,10.60
2023-04-16T23:08:42.981Z,10.60
2023-04-16T23:11:16.216Z,10.56
2023-04-16T23:13:49.598Z,10.50
2023-04-16T23:16:22.770Z,10.50
2023-04-16T23:18:55.773Z,10.50
2023-04-16T23:21:28.867Z,10.40
2023-04-16T23:24:01.831Z,10.40
2023-04-16T23:26:35.239Z,10.40
2023-04-16T23:29:08.634Z,10.40
2023-04-16T23:31:42.010Z,10.50
2023-04-16T23:34:15.133Z,10.50
2023-04-16T23:36:48.346Z,10.50
2023-04-16T23:39:21.300Z,10.40
2023-04-16T23:41:54.314Z,10.40
2023-04-16T23:44:27.405Z,10.40
2023-04-16T23:47:00.625Z,10.40
2023-04-16T23:49:33.804Z,10.40
2023-04-16T23:52:07.197Z,10.40
2023-04-16T23:54:40.210Z,10.34
2023-04-16T23:57:13.176Z,10.30
2023-04-16T23:59:46.131Z,10.30
